Time;durP1;ratioP1;P1;durP2;ratioP2;P2;SDS_P1;SDS_P2;PMS_P1;PMS_P2;Temp;Humidity;BMP_temperature;BMP_pressure;BME280_temperature;BME280_humidity;BME280_pressure;Samples;Min_cycle;Max_cycle;Signal;HPM_P1;HPM_P2
2023/10/25 00:02:04;;;;;;;;;;;10.50;99.90;;;;;;4928102;29;20110;-76
2023/10/25 00:04:53;;;;;;;;;;;10.50;99.90;;;;;;4927895;29;19907;-76
2023/10/25 00:07:19;;;;;;;;;;;10.50;99.90;;;;;;4878159;29;20198;-76
2023/10/25 00:09:47;;;;;;;;;;;10.50;99.90;;;;;;4940235;29;19997;-77
2023/10/25 00:12:15;;;;;;;;;;;10.60;99.90;;;;;;4947706;29;20125;-77
2023/10/25 00:14:41;;;;;;;;;;;10.50;99.90;;;;;;4915027;29;20121;-77
2023/10/25 00:17:07;;;;;;;;;;;10.50;99.90;;;;;;4946492;29;19910;-77
2023/10/25 00:19:33;;;;;;;;;;;10.50;99.90;;;;;;4930510;29;19907;-77
2023/10/25 00:21:58;;;;;;;;;;;10.40;99.90;;;;;;4929900;29;19919;-77
2023/10/25 00:24:24;;;;;;;;;;;10.40;99.90;;;;;;4940987;29;19911;-77
2023/10/25 00:26:50;;;;;;;;;;;10.40;99.90;;;;;;4927785;29;19914;-77
2023/10/25 00:29:16;;;;;;;;;;;10.40;99.90;;;;;;4926904;29;19918;-77
2023/10/25 05:56:01;;;;;;;;;;;8.00;99.90;;;;;;5213882;23;19923;-77
2023/10/25 05:58:27;;;;;;;;;;;7.90;99.90;;;;;;4925014;29;19911;-76
2023/10/25 06:00:55;;;;;;;;;;;7.90;99.90;;;;;;4926918;29;19935;-75
2023/10/25 06:03:22;;;;;;;;;;;7.90;99.90;;;;;;4933414;29;19942;-76
2023/10/25 06:05:54;;;;;;;;;;;7.90;99.90;;;;;;4929138;29;19914;-75
2023/10/25 06:14:43;;;;;;;;;;;7.90;99.90;;;;;;4936552;29;19910;-76
2023/10/25 06:17:18;;;;;;;;;;;7.90;99.90;;;;;;4928113;29;19985;-76
2023/10/25 06:19:53;;;;;;;;;;;8.00;99.90;;;;;;4926347;29;19979;-76
2023/10/25 06:22:20;;;;;;;;;;;8.10;99.90;;;;;;4925403;29;19918;-76
2023/10/25 06:24:47;;;;;;;;;;;8.20;99.90;;;;;;4909356;29;19911;-76
2023/10/25 06:27:12;;;;;;;;;;;8.30;99.90;;;;;;4913508;29;19954;-76
2023/10/25 06:29:38;;;;;;;;;;;8.40;99.90;;;;;;4935346;29;19917;-75
2023/10/25 06:32:04;;;;;;;;;;;8.50;99.90;;;;;;4925936;29;19911;-75
2023/10/25 06:34:38;;;;;;;;;;;8.60;99.90;;;;;;4925273;29;19911;-75
2023/10/25 06:37:05;;;;;;;;;;;8.60;99.90;;;;;;4928819;29;19918;-74
2023/10/25 06:39:31;;;;;;;;;;;8.70;99.90;;;;;;4928908;29;19911;-75
2023/10/25 06:41:57;;;;;;;;;;;8.60;99.90;;;;;;4913261;29;19913;-75
2023/10/25 06:44:25;;;;;;;;;;;8.60;99.90;;;;;;4917667;29;19915;-75
2023/10/25 06:46:51;;;;;;;;;;;8.50;99.90;;;;;;4949134;29;19919;-75
2023/10/25 06:49:23;;;;;;;;;;;8.60;99.90;;;;;;4931522;29;19947;-76
2023/10/25 06:51:53;;;;;;;;;;;8.70;99.90;;;;;;4931994;29;19910;-75
2023/10/25 06:54:25;;;;;;;;;;;8.90;99.90;;;;;;4947170;29;20120;-77
2023/10/25 06:57:19;;;;;;;;;;;9.10;99.90;;;;;;4928530;29;19982;-75
2023/10/25 06:59:45;;;;;;;;;;;9.20;99.90;;;;;;4908670;29;19911;-76
2023/10/25 07:02:33;;;;;;;;;;;9.50;99.90;;;;;;4929302;29;20082;-75
2023/10/25 07:05:33;;;;;;;;;;;9.80;99.90;;;;;;4929552;29;19939;-75
2023/10/25 07:08:01;;;;;;;;;;;10.00;99.90;;;;;;4854038;29;19913;-74
2023/10/25 07:10:27;;;;;;;;;;;10.20;99.90;;;;;;4928969;29;19962;-74
2023/10/25 07:12:53;;;;;;;;;;;10.30;99.90;;;;;;4929435;29;20197;-75
2023/10/25 07:15:19;;;;;;;;;;;10.40;99.90;;;;;;4928772;29;19955;-75
2023/10/25 07:17:49;;;;;;;;;;;10.50;99.90;;;;;;4911897;29;19911;-75
2023/10/25 07:20:15;;;;;;;;;;;10.60;99.90;;;;;;4927587;29;19939;-75
2023/10/25 07:22:41;;;;;;;;;;;10.70;99.90;;;;;;4929378;29;20082;-75
2023/10/25 07:25:07;;;;;;;;;;;10.80;99.90;;;;;;4927874;29;19982;-76
2023/10/25 07:27:52;;;;;;;;;;;10.90;99.90;;;;;;4896824;29;20208;-75
2023/10/25 07:30:17;;;;;;;;;;;11.10;99.90;;;;;;4927392;29;19955;-76
2023/10/25 07:33:14;;;;;;;;;;;11.10;99.90;;;;;;4929594;29;19954;-76
2023/10/25 07:35:40;;;;;;;;;;;11.20;99.90;;;;;;4925043;29;19978;-77
2023/10/25 07:38:06;;;;;;;;;;;11.40;99.90;;;;;;4928146;29;20185;-76
2023/10/25 07:40:31;;;;;;;;;;;11.60;99.90;;;;;;4911723;29;19931;-76
2023/10/25 07:43:12;;;;;;;;;;;11.80;99.90;;;;;;4929155;29;19926;-76
2023/10/25 07:45:38;;;;;;;;;;;11.90;99.90;;;;;;4896583;29;19919;-76
2023/10/25 07:48:03;;;;;;;;;;;12.00;99.90;;;;;;4911695;29;19919;-78
2023/10/25 07:50:34;;;;;;;;;;;12.10;99.90;;;;;;4911947;29;19923;-77
2023/10/25 07:53:09;;;;;;;;;;;12.10;99.90;;;;;;4901312;29;19931;-77
2023/10/25 07:56:06;;;;;;;;;;;12.10;99.90;;;;;;4901370;29;19960;-77
2023/10/25 07:58:56;;;;;;;;;;;12.10;99.90;;;;;;4907844;29;19911;-77
2023/10/25 08:01:59;;;;;;;;;;;12.00;99.90;;;;;;4926798;29;19951;-76
2023/10/25 08:04:25;;;;;;;;;;;11.90;99.90;;;;;;4926935;29;20089;-77
2023/10/25 08:06:50;;;;;;;;;;;11.90;99.90;;;;;;4928388;29;19934;-77
2023/10/25 08:09:19;;;;;;;;;;;11.90;99.90;;;;;;4912599;29;20100;-77
2023/10/25 08:11:48;;;;;;;;;;;11.90;99.90;;;;;;4928635;29;19918;-78
2023/10/25 08:14:32;;;;;;;;;;;12.00;99.90;;;;;;4910910;29;19918;-77
2023/10/25 08:16:57;;;;;;;;;;;12.10;99.90;;;;;;4911309;29;19911;-78
2023/10/25 08:19:23;;;;;;;;;;;12.20;99.90;;;;;;4927898;29;19914;-76
2023/10/25 08:21:51;;;;;;;;;;;12.10;99.90;;;;;;4947132;29;19938;-77
2023/10/25 08:24:17;;;;;;;;;;;12.30;99.90;;;;;;4929846;29;20193;-76
2023/10/25 08:26:45;;;;;;;;;;;12.50;99.90;;;;;;4935875;29;19911;-76
2023/10/25 08:29:43;;;;;;;;;;;12.70;99.90;;;;;;4895419;29;20142;-75
2023/10/25 08:32:08;;;;;;;;;;;12.80;99.90;;;;;;4911172;29;19915;-76
2023/10/25 08:34:34;;;;;;;;;;;13.10;99.90;;;;;;4927461;29;19994;-76
2023/10/25 08:37:00;;;;;;;;;;;13.10;99.90;;;;;;4926891;29;20184;-75
2023/10/25 08:39:25;;;;;;;;;;;13.10;99.90;;;;;;4926126;29;19911;-76
2023/10/25 08:41:52;;;;;;;;;;;13.20;99.90;;;;;;4911057;29;19911;-76
2023/10/25 08:44:21;;;;;;;;;;;13.20;99.90;;;;;;4903471;29;19911;-76
2023/10/25 08:46:48;;;;;;;;;;;13.20;99.90;;;;;;4929858;29;19935;-76
2023/10/25 08:52:28;;;;;;;;;;;13.00;99.90;;;;;;4879225;29;19912;-74
2023/10/25 08:54:57;;;;;;;;;;;12.70;99.90;;;;;;4946188;29;19962;-75
2023/10/25 08:57:23;;;;;;;;;;;12.70;99.90;;;;;;4929244;29;19981;-75
2023/10/25 09:11:01;;;;;;;;;;;;;;;;;;;;;
2023/10/25 09:21:10;;;;;;;;;;;12.60;99.90;;;;;;4887562;29;19918;-75
2023/10/25 09:23:38;;;;;;;;;;;12.60;99.90;;;;;;4871546;29;19934;-75
2023/10/25 09:33:33;;;;;;;;;;;12.70;99.90;;;;;;4869871;29;19923;-76
2023/10/25 09:39:35;;;;;;;;;;;12.60;99.90;;;;;;4877209;29;19955;-77
2023/10/25 09:42:18;;;;;;;;;;;12.60;99.90;;;;;;4887626;29;19991;-74
2023/10/25 09:44:56;;;;;;;;;;;12.70;99.90;;;;;;4887740;29;19920;-76
2023/10/25 10:13:04;;;;;;;;;;;13.60;99.90;;;;;;4852079;29;19983;-76
2023/10/25 10:40:55;;;;;;;;;;;14.30;99.90;;;;;;4906704;29;19950;-77
2023/10/25 10:44:02;;;;;;;;;;;14.40;99.90;;;;;;4848314;29;19916;-75
2023/10/25 10:47:08;;;;;;;;;;;14.50;99.90;;;;;;4834229;29;19921;-77
2023/10/25 10:50:05;;;;;;;;;;;14.60;99.90;;;;;;4845367;29;20126;-77
2023/10/25 10:56:19;;;;;;;;;;;14.90;99.90;;;;;;4849790;29;20027;-77
2023/10/25 11:02:17;;;;;;;;;;;15.20;99.90;;;;;;4812613;29;19927;-78
2023/10/25 11:09:03;;;;;;;;;;;15.30;99.90;;;;;;4724975;30;19990;-82
2023/10/25 11:18:09;;;;;;;;;;;15.40;99.90;;;;;;4777440;30;20014;-78
2023/10/25 11:30:38;;;;;;;;;;;16.00;99.90;;;;;;4780035;30;19948;-76
2023/10/25 11:37:20;;;;;;;;;;;17.40;99.90;;;;;;4780344;30;19921;-76
2023/10/25 11:40:18;;;;;;;;;;;18.30;99.90;;;;;;4826419;29;19996;-77
2023/10/25 11:43:00;;;;;;;;;;;19.80;99.20;;;;;;4858212;29;19994;-75
2023/10/25 11:46:01;;;;;;;;;;;;;;;;;;;;;
2023/10/25 11:49:14;;;;;;;;;;;19.80;95.50;;;;;;4889296;29;20026;-75
2023/10/25 11:52:16;;;;;;;;;;;19.60;95.20;;;;;;4900667;29;19911;-76
2023/10/25 11:55:03;;;;;;;;;;;19.60;95.70;;;;;;4879266;29;19943;-73
2023/10/25 11:57:57;;;;;;;;;;;19.80;94.80;;;;;;4889606;29;20249;-76
2023/10/25 12:01:04;;;;;;;;;;;20.30;93.80;;;;;;4902358;29;19942;-76
2023/10/25 12:15:11;;;;;;;;;;;20.90;90.80;;;;;;4907907;29;19918;-76
2023/10/25 12:17:36;;;;;;;;;;;19.80;92.00;;;;;;4891245;29;20173;-76
2023/10/25 12:23:40;;;;;;;;;;;18.80;93.50;;;;;;4906747;29;19938;-75
2023/10/25 12:26:39;;;;;;;;;;;18.50;94.40;;;;;;4888712;29;19916;-76
2023/10/25 12:42:06;;;;;;;;;;;;;;;;;;;;;
2023/10/25 13:23:14;;;;;;;;;;;19.50;91.20;;;;;;5302407;23;19922;-76
2023/10/25 13:26:05;;;;;;;;;;;19.50;91.60;;;;;;4965178;29;20263;-76
2023/10/25 13:29:19;;;;;;;;;;;19.60;91.60;;;;;;4949590;29;19917;-78
2023/10/25 13:32:03;;;;;;;;;;;19.40;90.80;;;;;;4947793;29;20192;-76
2023/10/25 13:34:55;;;;;;;;;;;19.20;90.60;;;;;;4932043;29;19911;-77
2023/10/25 13:37:30;;;;;;;;;;;19.00;91.50;;;;;;4867893;29;20054;-75
2023/10/25 13:40:26;;;;;;;;;;;18.70;91.30;;;;;;4948075;29;19910;-77
2023/10/25 13:45:50;;;;;;;;;;;18.30;92.30;;;;;;4918317;29;19917;-77
2023/10/25 14:12:44;;;;;;;;;;;18.80;91.10;;;;;;4724314;30;19987;-77
2023/10/25 14:15:25;;;;;;;;;;;18.60;91.20;;;;;;4724345;30;19961;-75
2023/10/25 14:37:00;;;;;;;;;;;17.70;93.50;;;;;;4673430;30;19927;-76
2023/10/25 14:39:35;;;;;;;;;;;17.60;93.80;;;;;;4703474;30;19962;-75
2023/10/25 14:52:54;;;;;;;;;;;17.30;95.20;;;;;;4741998;30;20223;-76
2023/10/25 14:55:45;;;;;;;;;;;16.90;95.60;;;;;;4761807;29;19914;-76
2023/10/25 15:06:28;;;;;;;;;;;16.40;97.10;;;;;;4745460;30;19964;-75
2023/10/25 15:16:21;;;;;;;;;;;16.10;97.40;;;;;;4744626;30;19957;-77
2023/10/25 15:44:24;;;;;;;;;;;14.00;99.90;;;;;;4677784;30;20238;-74
2023/10/25 15:47:21;;;;;;;;;;;13.60;99.90;;;;;;4688756;30;20237;-74
2023/10/25 15:50:20;;;;;;;;;;;13.40;99.90;;;;;;4738942;30;19959;-73
2023/10/25 15:53:19;;;;;;;;;;;13.30;99.90;;;;;;4759984;30;20007;-74
2023/10/25 15:56:34;;;;;;;;;;;13.20;99.90;;;;;;4774020;30;19921;-75
2023/10/25 15:59:40;;;;;;;;;;;13.10;99.90;;;;;;4788323;29;19981;-76
2023/10/25 16:26:33;;;;;;;;;;;12.50;99.90;;;;;;4922411;29;20206;-75
2023/10/25 16:28:58;;;;;;;;;;;12.50;99.90;;;;;;4927737;29;20256;-72
2023/10/25 16:31:24;;;;;;;;;;;12.50;99.90;;;;;;4927513;29;19911;-73
2023/10/25 16:33:55;;;;;;;;;;;12.50;99.90;;;;;;4927165;29;19999;-73
2023/10/25 16:36:24;;;;;;;;;;;12.60;99.90;;;;;;4927909;29;19911;-73
2023/10/25 17:03:04;;;;;;;;;;;12.70;99.90;;;;;;4893953;29;19979;-74
2023/10/25 17:09:37;;;;;;;;;;;12.70;99.90;;;;;;4854418;29;19919;-76
2023/10/25 17:12:58;;;;;;;;;;;12.80;99.90;;;;;;4869468;29;19987;-76
2023/10/25 17:16:13;;;;;;;;;;;12.70;99.90;;;;;;4755048;30;20210;-74
2023/10/25 17:30:24;;;;;;;;;;;11.40;99.90;;;;;;4735080;30;19944;-75
2023/10/25 17:33:14;;;;;;;;;;;10.90;99.90;;;;;;4724892;30;19933;-76
2023/10/25 17:40:10;;;;;;;;;;;10.60;99.90;;;;;;4714119;30;19925;-76
2023/10/25 17:49:33;;;;;;;;;;;10.50;99.90;;;;;;4707487;30;19968;-74
2023/10/25 17:52:11;;;;;;;;;;;10.50;99.90;;;;;;4749678;29;19962;-74
2023/10/25 17:55:20;;;;;;;;;;;10.50;99.90;;;;;;4813650;29;20030;-74
2023/10/25 18:05:50;;;;;;;;;;;10.90;99.90;;;;;;4829814;29;20033;-73
2023/10/25 18:11:59;;;;;;;;;;;11.20;99.90;;;;;;4822919;29;19972;-73
2023/10/25 18:18:02;;;;;;;;;;;11.30;99.90;;;;;;4837317;29;19920;-73
2023/10/25 18:49:45;;;;;;;;;;;12.00;99.90;;;;;;4876736;29;20010;-71
2023/10/25 18:55:38;;;;;;;;;;;11.90;99.90;;;;;;4858032;29;19918;-73
2023/10/25 18:59:10;;;;;;;;;;;11.90;99.90;;;;;;4891042;29;20008;-74
2023/10/25 19:19:24;;;;;;;;;;;11.30;99.90;;;;;;4816507;29;20031;-73
2023/10/25 19:22:02;;;;;;;;;;;11.30;99.90;;;;;;4816429;29;19939;-72
2023/10/25 19:24:28;;;;;;;;;;;11.30;99.90;;;;;;4811426;29;19916;-72
2023/10/25 19:26:54;;;;;;;;;;;11.30;99.90;;;;;;4798207;30;19914;-72
2023/10/25 19:29:40;;;;;;;;;;;11.20;99.90;;;;;;4798006;29;19920;-72
2023/10/25 19:32:05;;;;;;;;;;;11.20;99.90;;;;;;4798195;29;20219;-73
2023/10/25 19:35:03;;;;;;;;;;;11.10;99.90;;;;;;4798039;30;19913;-72
2023/10/25 19:37:50;;;;;;;;;;;11.10;99.90;;;;;;4790603;29;19913;-74
2023/10/25 19:40:49;;;;;;;;;;;11.00;99.90;;;;;;4782722;30;19913;-72
2023/10/25 19:43:40;;;;;;;;;;;10.90;99.90;;;;;;4797106;29;19929;-71
2023/10/25 19:56:40;;;;;;;;;;;11.20;99.90;;;;;;4779736;30;20103;-74
2023/10/25 19:59:09;;;;;;;;;;;11.30;99.90;;;;;;4779399;30;19978;-73
2023/10/25 20:02:02;;;;;;;;;;;11.30;99.90;;;;;;4779740;30;19937;-71
2023/10/25 20:04:28;;;;;;;;;;;11.30;99.90;;;;;;4764362;30;19925;-74
2023/10/25 20:17:42;;;;;;;;;;;11.50;99.90;;;;;;4852158;29;19961;-72
2023/10/25 20:24:18;;;;;;;;;;;11.50;99.90;;;;;;4833246;29;19974;-73
2023/10/25 20:27:18;;;;;;;;;;;11.50;99.90;;;;;;4814339;29;19920;-73
2023/10/25 20:30:25;;;;;;;;;;;11.50;99.90;;;;;;4814277;29;20117;-73
2023/10/25 20:33:50;;;;;;;;;;;11.50;99.90;;;;;;4778949;30;20035;-74
2023/10/25 20:36:41;;;;;;;;;;;11.50;99.90;;;;;;4779073;30;19920;-73
2023/10/25 20:39:16;;;;;;;;;;;11.50;99.90;;;;;;4779283;30;19985;-75
2023/10/25 20:41:41;;;;;;;;;;;11.50;99.90;;;;;;4778945;30;19914;-73
2023/10/25 20:44:22;;;;;;;;;;;11.50;99.90;;;;;;4779142;30;20155;-73
2023/10/25 20:47:12;;;;;;;;;;;11.60;99.90;;;;;;4778061;30;19922;-73
2023/10/25 20:49:46;;;;;;;;;;;11.50;99.90;;;;;;4778526;30;20195;-75
2023/10/25 20:52:17;;;;;;;;;;;11.50;99.90;;;;;;4778782;30;19920;-74
2023/10/25 20:54:44;;;;;;;;;;;11.70;99.90;;;;;;4794689;29;20202;-74
2023/10/25 20:57:59;;;;;;;;;;;11.70;99.90;;;;;;4815079;29;19913;-73
2023/10/25 21:07:50;;;;;;;;;;;11.60;99.90;;;;;;4852226;29;19960;-73
2023/10/25 21:13:54;;;;;;;;;;;11.60;99.90;;;;;;4887916;29;20208;-73
2023/10/25 21:16:53;;;;;;;;;;;11.50;99.90;;;;;;4849400;29;19912;-74
2023/10/25 21:22:48;;;;;;;;;;;12.00;99.90;;;;;;4832431;29;19919;-74
2023/10/25 21:36:18;;;;;;;;;;;12.50;99.90;;;;;;4690763;30;20121;-74
2023/10/25 21:56:20;;;;;;;;;;;12.70;99.90;;;;;;4707978;30;19921;-73
2023/10/25 21:59:17;;;;;;;;;;;12.60;99.90;;;;;;4707187;30;19938;-74
2023/10/25 22:12:10;;;;;;;;;;;12.70;99.90;;;;;;4723919;30;19937;-73
2023/10/25 22:14:48;;;;;;;;;;;12.70;99.90;;;;;;4762461;30;20196;-73
2023/10/25 22:17:38;;;;;;;;;;;12.70;99.90;;;;;;4777663;30;19956;-74
2023/10/25 22:27:44;;;;;;;;;;;12.70;99.90;;;;;;4885975;29;19919;-74
2023/10/25 22:37:55;;;;;;;;;;;12.60;99.90;;;;;;4829870;29;19913;-74
2023/10/25 22:58:35;;;;;;;;;;;12.30;99.90;;;;;;4759177;30;20183;-73
2023/10/25 23:07:58;;;;;;;;;;;12.30;99.90;;;;;;4759124;30;20025;-74
2023/10/25 23:23:54;;;;;;;;;;;11.80;99.90;;;;;;4745325;30;19929;-74
2023/10/25 23:26:36;;;;;;;;;;;11.70;99.90;;;;;;4779115;29;20219;-75
2023/10/25 23:33:20;;;;;;;;;;;11.40;99.90;;;;;;4780542;29;19939;-74
2023/10/25 23:39:47;;;;;;;;;;;11.40;99.90;;;;;;4798391;30;20104;-75
2023/10/25 23:42:35;;;;;;;;;;;11.40;99.90;;;;;;4813463;29;19913;-74
2023/10/25 23:45:04;;;;;;;;;;;11.40;99.90;;;;;;4797571;29;19913;-74
2023/10/25 23:47:32;;;;;;;;;;;11.30;99.90;;;;;;4783213;30;19914;-75
2023/10/25 23:49:57;;;;;;;;;;;11.20;99.90;;;;;;4797697;30;20136;-74
2023/10/25 23:52:23;;;;;;;;;;;11.20;99.90;;;;;;4797365;30;19910;-74
